Mombasa, Kenya

1:30 PM EAT on July 23, 2016 (GMT +0300)
Moi | | Change Station

Elev 180 ft 4.03 °S, 39.62 °E | Updated 30 minutes ago

Partly Cloudy
Partly Cloudy
82 °F
Feels Like 85 °F
N
9
Wind Variable Wind from South

Today
High -- | Low -- °F
--% Chance of Precip.
Yesterday
High -- | Low -- °F
Precip. -- in
Pressure 30.01 in
Visibility 6.2 miles
Clouds Few 2400 ft
Heat Index 85 °F
Dew Point 68 °F
Humidity 62%
Rainfall 0.00 in
Snow Depth Not available.
6:30 AM 6:25 PM
Waning Gibbous, 86% visible
METAR HKMO 231000Z 17008KT 9999 FEW024 28/20 Q1016 NOSIG
Pressure 30.01 in
Visibility 6.2 miles
Clouds Few 2400 ft
Heat Index 85 °F
Dew Point 68 °F
Humidity 62%
Rainfall 0.00 in
Snow Depth Not available.
6:30 AM 6:25 PM
Waning Gibbous, 86% visible
METAR HKMO 231000Z 17008KT 9999 FEW024 28/20 Q1016 NOSIG

10-Day Weather Forecast

No radar image for this location.
×

Almanac

Astronomy

Jul. 23, 2016 Rise Set
Actual Time
Civil Twilight
Nautical Twilight
Astronomical Twilight
Moon
Length of Visible Light
Length of Day
Tomorrow will be .
, % of the Moon is Illuminated

Today's Extremes

Country Highs Country Lows

Community

WunderPhotos

Upload Photos

1,926,791 photos uploaded!

WunderBlog® & News

Nearby

Air Quality

  Air Quality AQ Index Pollutant
Not available.

Snow Depth

Station Depth Elevation

Earthquake Activity

City Distance Mag. Time & Date
Minimum magnitude displayed is 2.5.

Coastal Water Temperatures

Place Temperature

Stations

Nearby Weather Stations

Station Location Temp. Windchill Dew Point Humidity Wind Precip. Elev Updated Type